createdAt,value
2018-12-06T00:00:28.755Z,24.60
2018-12-06T00:02:56.291Z,20.80
2018-12-06T00:05:24.291Z,26.67
2018-12-06T00:10:55.025Z,21.53
2018-12-06T00:13:22.755Z,28.70
2018-12-06T00:15:50.286Z,20.90
2018-12-06T00:18:17.811Z,28.73
2018-12-06T00:20:45.357Z,21.07
2018-12-06T00:23:12.889Z,26.60
2018-12-06T00:25:41.138Z,25.73
2018-12-06T00:28:08.659Z,23.63
2018-12-06T00:30:38.282Z,19.77
2018-12-06T00:33:05.820Z,25.20
2018-12-06T00:35:33.656Z,28.47
2018-12-06T00:38:01.187Z,19.23
2018-12-06T00:40:29.401Z,26.43
2018-12-06T00:42:56.935Z,18.33
2018-12-06T00:45:24.867Z,18.13
2018-12-06T00:47:52.399Z,23.67
2018-12-06T00:50:20.277Z,32.53
2018-12-06T00:52:47.794Z,18.23
2018-12-06T00:55:15.549Z,23.07
2018-12-06T00:57:44.837Z,18.27
2018-12-06T01:00:14.042Z,22.63
2018-12-06T01:02:41.561Z,24.63
2018-12-06T01:05:09.894Z,19.37
2018-12-06T01:07:37.439Z,16.07
2018-12-06T01:10:05.386Z,17.47
2018-12-06T01:12:32.936Z,15.93
2018-12-06T01:15:00.964Z,24.03
2018-12-06T01:17:28.706Z,16.40
2018-12-06T01:19:56.632Z,28.90
2018-12-06T01:22:24.165Z,12.73
2018-12-06T01:24:51.927Z,24.30
2018-12-06T01:27:19.461Z,23.03
2018-12-06T01:29:47.120Z,17.53
2018-12-06T01:32:14.671Z,13.73
2018-12-06T01:34:42.852Z,22.83
2018-12-06T01:37:10.378Z,26.07
2018-12-06T01:39:38.313Z,12.10
2018-12-06T01:42:05.996Z,18.87
2018-12-06T01:44:33.863Z,14.30
2018-12-06T01:47:01.417Z,28.70
2018-12-06T01:49:29.226Z,23.13
2018-12-06T01:51:56.784Z,16.60
2018-12-06T01:54:24.754Z,16.40
2018-12-06T01:56:54.026Z,20.37
2018-12-06T01:59:21.919Z,14.70
2018-12-06T02:01:49.450Z,15.43
2018-12-06T02:04:17.224Z,16.47
2018-12-06T02:06:44.764Z,15.50
2018-12-06T02:09:12.578Z,14.93
2018-12-06T02:11:40.393Z,16.37
2018-12-06T02:14:08.347Z,16.50
2018-12-06T02:16:35.882Z,15.50
2018-12-06T02:19:03.831Z,21.67
2018-12-06T02:21:31.365Z,13.43
2018-12-06T02:23:59.378Z,17.03
2018-12-06T02:26:27.511Z,10.73
2018-12-06T02:28:55.037Z,14.60
2018-12-06T02:31:22.954Z,13.37
2018-12-06T02:33:50.539Z,12.07
2018-12-06T02:36:18.438Z,12.00
2018-12-06T02:38:46.124Z,17.23
2018-12-06T02:41:13.645Z,17.83
2018-12-06T02:43:42.135Z,16.20
2018-12-06T02:46:10.159Z,11.87
2018-12-06T02:48:37.685Z,11.77
2018-12-06T02:51:05.494Z,14.90
2018-12-06T02:53:33.031Z,13.60
2018-12-06T02:56:01.620Z,16.40
2018-12-06T02:58:29.160Z,19.20
2018-12-06T03:00:57.012Z,12.20
2018-12-06T03:03:24.607Z,10.23
2018-12-06T03:05:52.493Z,13.67
2018-12-06T03:08:20.023Z,15.83
2018-12-06T03:10:51.049Z,11.23
2018-12-06T03:13:18.615Z,16.47
2018-12-06T03:15:47.044Z,20.53
2018-12-06T03:18:14.633Z,21.63
2018-12-06T03:20:42.690Z,15.97
2018-12-06T03:23:10.222Z,14.90
2018-12-06T03:25:38.241Z,17.90
2018-12-06T03:28:05.789Z,14.63
2018-12-06T03:30:33.900Z,16.87
2018-12-06T03:33:01.439Z,11.07
2018-12-06T03:35:29.922Z,17.00
2018-12-06T03:37:57.486Z,13.60
2018-12-06T03:40:25.270Z,14.93
2018-12-06T03:42:52.786Z,24.37
2018-12-06T03:45:20.580Z,12.83
2018-12-06T03:47:48.122Z,10.43
2018-12-06T03:50:16.289Z,15.87
2018-12-06T03:52:43.811Z,12.23
2018-12-06T03:55:11.644Z,13.80
2018-12-06T03:57:39.182Z,14.40
2018-12-06T04:00:07.176Z,14.20
2018-12-06T04:02:34.725Z,18.13
2018-12-06T04:05:02.671Z,15.50
2018-12-06T04:07:30.213Z,15.80
2018-12-06T04:09:58.050Z,14.50
2018-12-06T04:12:25.587Z,12.20
2018-12-06T04:14:53.372Z,12.30
2018-12-06T04:17:21.223Z,12.30
2018-12-06T04:19:48.922Z,13.00
2018-12-06T04:22:16.455Z,20.07
2018-12-06T04:24:43.998Z,11.97
2018-12-06T04:27:12.104Z,13.30
2018-12-06T04:29:39.626Z,14.67
2018-12-06T04:32:07.521Z,5.33
2018-12-06T04:34:35.058Z,6.97
2018-12-06T04:37:03.955Z,13.63
2018-12-06T04:39:31.502Z,8.23
2018-12-06T04:41:59.515Z,10.10
2018-12-06T04:44:27.050Z,10.57
2018-12-06T04:46:55.003Z,4.67
2018-12-06T04:49:22.533Z,8.00
2018-12-06T04:51:50.337Z,4.47
2018-12-06T04:54:17.918Z,8.33
2018-12-06T04:56:47.078Z,11.03
2018-12-06T04:59:14.608Z,5.17
2018-12-06T05:01:42.435Z,9.37
2018-12-06T05:04:10.084Z,8.40
2018-12-06T05:06:38.136Z,7.33
2018-12-06T05:09:06.349Z,10.47
2018-12-06T05:11:34.935Z,8.73
2018-12-06T05:14:02.465Z,8.30
2018-12-06T05:16:30.242Z,10.63
2018-12-06T05:18:58.124Z,8.10
2018-12-06T05:21:25.685Z,10.30
2018-12-06T05:23:53.394Z,10.43
2018-12-06T05:26:20.930Z,14.73
2018-12-06T05:28:49.142Z,12.30
2018-12-06T05:31:16.676Z,16.67
2018-12-06T05:33:44.636Z,19.03
2018-12-06T05:36:15.063Z,13.83
2018-12-06T05:38:43.496Z,16.47
2018-12-06T05:41:11.159Z,16.00
2018-12-06T05:43:39.411Z,21.00
2018-12-06T05:46:06.949Z,21.50
2018-12-06T05:48:34.777Z,18.90
2018-12-06T05:51:02.496Z,19.10
2018-12-06T05:53:30.261Z,16.53
2018-12-06T05:55:57.891Z,21.50
2018-12-06T05:58:26.209Z,19.17
2018-12-06T06:00:53.733Z,13.33
2018-12-06T06:03:21.735Z,17.53
2018-12-06T06:05:49.314Z,21.33
2018-12-06T06:08:17.179Z,18.50
2018-12-06T06:10:45.576Z,14.13
2018-12-06T06:13:13.397Z,14.30
2018-12-06T06:15:40.967Z,14.63
2018-12-06T06:18:09.508Z,22.73
2018-12-06T06:20:37.340Z,15.53
2018-12-06T06:23:05.581Z,17.07
2018-12-06T06:25:33.123Z,21.20
2018-12-06T06:28:02.161Z,18.53
2018-12-06T06:30:29.825Z,14.73
2018-12-06T06:32:59.086Z,22.53
2018-12-06T06:35:26.935Z,17.20
2018-12-06T06:37:54.491Z,13.43
2018-12-06T06:40:22.252Z,21.37
2018-12-06T06:42:49.788Z,21.90
2018-12-06T06:45:17.702Z,18.20
2018-12-06T06:47:45.245Z,16.83
2018-12-06T06:50:13.411Z,22.97
2018-12-06T06:52:40.957Z,12.50
2018-12-06T06:55:08.991Z,13.43
2018-12-06T06:57:36.733Z,22.50
2018-12-06T07:00:06.373Z,16.03
2018-12-06T07:02:33.909Z,19.93
2018-12-06T07:05:01.855Z,18.37
2018-12-06T07:07:29.404Z,12.93
2018-12-06T07:09:57.619Z,18.00
2018-12-06T07:12:25.633Z,20.60
2018-12-06T07:14:53.515Z,17.80
2018-12-06T07:17:21.766Z,15.90
2018-12-06T07:19:49.487Z,25.50
2018-12-06T07:22:17.365Z,25.50
2018-12-06T07:24:44.890Z,21.73
2018-12-06T07:27:12.433Z,16.10
2018-12-06T07:29:40.749Z,26.73
2018-12-06T07:32:08.283Z,18.13
2018-12-06T07:34:35.817Z,29.87
2018-12-06T07:37:04.122Z,34.57
2018-12-06T07:39:31.661Z,28.53
2018-12-06T07:41:59.839Z,33.57
2018-12-06T07:44:27.410Z,30.07
2018-12-06T07:46:55.582Z,34.43
2018-12-06T07:49:23.121Z,31.50
2018-12-06T07:51:51.150Z,34.07
2018-12-06T07:54:18.692Z,20.20
2018-12-06T07:56:46.831Z,32.53
2018-12-06T07:59:14.375Z,25.33
2018-12-06T08:01:42.400Z,20.27
2018-12-06T08:04:09.963Z,24.30
2018-12-06T08:06:37.723Z,33.17
2018-12-06T08:09:06.429Z,32.83
2018-12-06T08:11:34.671Z,24.67
2018-12-06T08:14:02.297Z,19.13
2018-12-06T08:16:30.378Z,23.07
2018-12-06T08:18:58.293Z,22.90
2018-12-06T08:21:25.829Z,17.77
2018-12-06T08:23:53.371Z,18.57
2018-12-06T08:26:21.053Z,21.13
2018-12-06T08:28:48.595Z,12.07
2018-12-06T08:31:16.384Z,19.80
2018-12-06T08:33:43.932Z,17.83
2018-12-06T08:36:11.717Z,25.23
2018-12-06T08:38:39.252Z,20.00
2018-12-06T08:41:07.204Z,20.70
2018-12-06T08:43:34.794Z,27.27
2018-12-06T08:46:02.967Z,19.70
2018-12-06T08:48:30.511Z,22.63
2018-12-06T08:50:58.487Z,18.23
2018-12-06T08:53:26.031Z,25.40
2018-12-06T08:55:54.252Z,22.37
2018-12-06T08:58:21.797Z,17.93
2018-12-06T09:00:49.766Z,12.63
2018-12-06T09:03:17.371Z,17.03
2018-12-06T09:05:45.310Z,15.97
2018-12-06T09:08:12.916Z,14.23
2018-12-06T09:10:41.446Z,19.87
2018-12-06T09:13:08.989Z,17.43
2018-12-06T09:15:36.756Z,22.27
2018-12-06T09:18:04.283Z,26.73
2018-12-06T09:20:32.333Z,18.50
2018-12-06T09:22:59.875Z,32.10
2018-12-06T09:25:27.395Z,21.40
2018-12-06T09:27:55.071Z,14.77
2018-12-06T09:30:22.677Z,15.53
2018-12-06T09:32:50.589Z,13.20
2018-12-06T09:35:18.107Z,17.50
2018-12-06T09:37:45.969Z,19.17
2018-12-06T09:40:13.788Z,16.53
2018-12-06T09:42:41.330Z,20.17
2018-12-06T09:45:09.053Z,19.70
2018-12-06T09:47:36.768Z,17.80
2018-12-06T09:50:05.072Z,18.00
2018-12-06T09:52:33.056Z,16.30
2018-12-06T09:55:00.594Z,16.53
2018-12-06T09:57:28.443Z,21.80
2018-12-06T09:59:56.730Z,22.70
2018-12-06T10:02:24.402Z,28.90
2018-12-06T10:04:51.941Z,28.57
2018-12-06T10:07:19.742Z,17.30
2018-12-06T10:09:47.306Z,23.20
2018-12-06T10:12:16.886Z,14.70
2018-12-06T10:14:44.429Z,17.87
2018-12-06T10:17:12.405Z,21.97
2018-12-06T10:19:39.948Z,16.27
2018-12-06T10:22:07.735Z,24.60
2018-12-06T10:24:35.355Z,27.00
2018-12-06T10:27:03.488Z,25.87
2018-12-06T10:29:31.036Z,26.40
2018-12-06T10:31:58.988Z,22.43
2018-12-06T10:34:26.534Z,27.23
2018-12-06T10:36:54.286Z,20.27
2018-12-06T10:39:21.984Z,32.57
2018-12-06T10:41:49.719Z,20.57
2018-12-06T10:44:27.925Z,18.10
2018-12-06T10:46:55.460Z,19.30
2018-12-06T10:49:23.142Z,18.43
2018-12-06T10:51:50.712Z,17.03
2018-12-06T10:54:18.800Z,21.73
2018-12-06T10:56:46.456Z,26.83
2018-12-06T10:59:13.977Z,23.73
2018-12-06T11:01:47.370Z,21.97
2018-12-06T11:04:15.388Z,22.50
2018-12-06T11:06:43.664Z,30.73
2018-12-06T11:09:11.380Z,21.27
2018-12-06T11:11:39.349Z,22.97
2018-12-06T11:14:06.886Z,28.80
2018-12-06T11:16:34.564Z,17.80
2018-12-06T11:19:02.125Z,28.17
2018-12-06T11:21:30.074Z,19.50
2018-12-06T11:23:57.618Z,36.50
2018-12-06T11:26:25.629Z,29.60
2018-12-06T11:28:53.156Z,14.80
2018-12-06T11:31:21.093Z,19.57
2018-12-06T11:33:48.662Z,20.70
2018-12-06T11:36:16.356Z,20.80
2018-12-06T11:38:44.045Z,26.77
2018-12-06T11:41:12.811Z,17.47
2018-12-06T11:43:40.348Z,20.93
2018-12-06T11:46:08.018Z,23.47
2018-12-06T11:48:35.571Z,17.53
2018-12-06T11:51:03.584Z,23.93
2018-12-06T11:53:31.125Z,20.13
2018-12-06T11:55:59.789Z,21.83
2018-12-06T11:58:27.324Z,17.53
2018-12-06T12:00:54.996Z,19.27
2018-12-06T12:03:22.550Z,17.63
2018-12-06T12:05:50.357Z,19.37
2018-12-06T12:08:17.925Z,19.20
2018-12-06T12:10:45.453Z,22.03
2018-12-06T12:13:13.371Z,20.03
2018-12-06T12:15:40.915Z,16.77
2018-12-06T12:18:08.883Z,20.07
2018-12-06T12:20:36.418Z,15.13
2018-12-06T12:23:04.103Z,13.13
2018-12-06T12:25:31.631Z,18.63
2018-12-06T12:27:59.783Z,24.27
2018-12-06T12:30:27.322Z,20.67
2018-12-06T12:32:55.184Z,20.13
2018-12-06T12:35:22.723Z,17.80
2018-12-06T12:37:50.518Z,27.70
2018-12-06T12:40:18.067Z,17.83
2018-12-06T12:42:46.151Z,24.17
2018-12-06T12:45:13.705Z,24.80
2018-12-06T12:47:41.771Z,17.60
2018-12-06T12:50:09.573Z,18.03
2018-12-06T12:52:37.509Z,20.00
2018-12-06T12:55:05.359Z,20.43
2018-12-06T12:57:34.399Z,18.93
2018-12-06T13:00:01.939Z,21.87
2018-12-06T13:02:29.903Z,19.30
2018-12-06T13:04:57.450Z,22.20
2018-12-06T13:07:25.224Z,21.37
2018-12-06T13:09:52.775Z,25.00
2018-12-06T13:12:20.758Z,27.13
2018-12-06T13:14:48.382Z,42.10
2018-12-06T13:17:16.189Z,30.67
2018-12-06T13:19:43.983Z,20.37
2018-12-06T13:22:11.742Z,25.57
2018-12-06T13:24:39.926Z,39.73
2018-12-06T13:27:07.860Z,25.60
2018-12-06T13:29:35.522Z,21.20
2018-12-06T13:32:04.129Z,23.27
2018-12-06T13:34:31.811Z,29.30
2018-12-06T13:36:59.336Z,36.90
2018-12-06T13:39:27.075Z,31.47
2018-12-06T13:41:54.631Z,28.67
2018-12-06T13:44:23.311Z,27.40
2018-12-06T13:46:50.857Z,26.33
2018-12-06T13:49:19.091Z,28.17
2018-12-06T13:51:47.578Z,33.37
2018-12-06T13:54:15.401Z,24.80
2018-12-06T13:56:42.947Z,29.33
2018-12-06T13:59:11.356Z,29.73
2018-12-06T14:01:38.877Z,25.07
2018-12-06T14:04:06.841Z,21.63
2018-12-06T14:06:34.421Z,26.33
2018-12-06T14:09:02.809Z,27.43
2018-12-06T14:11:30.354Z,37.10
2018-12-06T14:13:58.499Z,24.90
2018-12-06T14:16:26.041Z,27.20
2018-12-06T14:18:54.299Z,29.10
2018-12-06T14:21:21.835Z,21.00
2018-12-06T14:23:49.806Z,22.70
2018-12-06T14:26:17.513Z,21.73
2018-12-06T14:28:45.281Z,18.60
2018-12-06T14:31:13.361Z,20.30
2018-12-06T14:33:41.645Z,30.03
2018-12-06T14:36:09.181Z,24.47
2018-12-06T14:38:37.200Z,26.47
2018-12-06T14:41:04.745Z,31.37
2018-12-06T14:43:32.689Z,25.07
2018-12-06T14:46:01.069Z,25.27
2018-12-06T14:48:28.825Z,25.83
2018-12-06T14:50:56.745Z,32.07
2018-12-06T14:53:24.298Z,27.67
2018-12-06T14:55:52.471Z,32.43
2018-12-06T14:58:20.209Z,24.20
2018-12-06T15:00:48.031Z,38.87
2018-12-06T15:03:15.591Z,26.30
2018-12-06T15:05:43.744Z,27.93
2018-12-06T15:08:11.294Z,23.80
2018-12-06T15:10:39.069Z,31.07
2018-12-06T15:13:07.373Z,39.87
2018-12-06T15:15:36.448Z,37.20
2018-12-06T15:18:04.027Z,29.20
2018-12-06T15:20:32.528Z,34.53
2018-12-06T15:23:00.083Z,36.20
2018-12-06T15:25:27.741Z,32.23
2018-12-06T15:27:56.458Z,33.63
2018-12-06T15:30:24.468Z,32.93
2018-12-06T15:32:52.001Z,28.07
2018-12-06T15:35:19.799Z,36.23
2018-12-06T15:37:47.962Z,36.70
2018-12-06T15:40:15.938Z,38.97
2018-12-06T15:42:43.488Z,30.03
2018-12-06T15:45:11.779Z,36.17
2018-12-06T15:47:39.343Z,32.77
2018-12-06T15:50:07.619Z,40.13
2018-12-06T15:52:35.173Z,31.73
2018-12-06T15:55:02.977Z,26.23
2018-12-06T15:57:30.582Z,31.03
2018-12-06T15:59:58.392Z,29.03
2018-12-06T16:02:25.962Z,46.00
2018-12-06T16:04:53.511Z,34.63
2018-12-06T16:07:21.111Z,37.37
2018-12-06T16:09:48.676Z,35.90
2018-12-06T16:12:17.165Z,34.63
2018-12-06T16:14:44.709Z,39.07
2018-12-06T16:17:12.487Z,42.33
2018-12-06T16:19:40.031Z,39.97
2018-12-06T16:22:08.254Z,34.63
2018-12-06T16:24:36.016Z,36.10
2018-12-06T16:27:03.859Z,43.33
2018-12-06T16:29:31.409Z,43.10
2018-12-06T16:31:59.332Z,37.10
2018-12-06T16:34:26.889Z,33.27
2018-12-06T16:36:55.053Z,35.03
2018-12-06T16:39:22.607Z,38.90
2018-12-06T16:41:50.347Z,38.07
2018-12-06T16:44:17.926Z,38.30
2018-12-06T16:46:46.295Z,43.83
2018-12-06T16:49:13.928Z,36.33
2018-12-06T16:51:43.027Z,35.73
2018-12-06T16:54:10.847Z,47.77
2018-12-06T16:56:38.402Z,40.13
2018-12-06T16:59:06.441Z,35.50
2018-12-06T17:01:34.079Z,36.60
2018-12-06T17:04:02.577Z,33.73
2018-12-06T17:06:30.128Z,44.80
2018-12-06T17:08:58.318Z,39.03
2018-12-06T17:11:26.342Z,41.07
2018-12-06T17:13:54.311Z,43.10
2018-12-06T17:16:21.867Z,37.27
2018-12-06T17:18:49.770Z,47.93
2018-12-06T17:21:17.492Z,44.23
2018-12-06T17:23:45.523Z,45.87
2018-12-06T17:26:13.105Z,40.87
2018-12-06T17:28:41.041Z,33.57
2018-12-06T17:31:08.593Z,20.43
2018-12-06T17:33:36.521Z,17.13
2018-12-06T17:36:04.056Z,12.53
2018-12-06T17:38:31.803Z,10.20
2018-12-06T17:40:59.337Z,9.07
2018-12-06T17:43:27.115Z,7.83
2018-12-06T17:45:54.638Z,9.37
2018-12-06T17:48:22.425Z,8.07
2018-12-06T17:50:49.959Z,8.93
2018-12-06T17:53:17.873Z,11.27
2018-12-06T17:55:51.052Z,11.23
2018-12-06T17:58:19.697Z,9.63
2018-12-06T18:00:47.998Z,7.57
2018-12-06T18:03:15.577Z,8.70
2018-12-06T18:05:43.977Z,10.57
2018-12-06T18:08:12.301Z,10.87
2018-12-06T18:10:41.302Z,8.60
2018-12-06T18:13:08.850Z,8.93
2018-12-06T18:15:37.724Z,12.60
2018-12-06T18:18:05.647Z,8.10
2018-12-06T18:20:33.464Z,9.93
2018-12-06T18:23:01.487Z,10.87
2018-12-06T18:25:29.125Z,12.30
2018-12-06T18:27:58.813Z,12.20
2018-12-06T18:30:26.501Z,9.80
2018-12-06T18:32:54.052Z,9.70
2018-12-06T18:35:23.085Z,9.77
2018-12-06T18:37:50.648Z,11.13
2018-12-06T18:40:18.505Z,10.37
2018-12-06T18:42:46.028Z,13.53
2018-12-06T18:45:13.825Z,20.43
2018-12-06T18:47:41.405Z,13.83
2018-12-06T18:50:10.676Z,11.13
2018-12-06T18:52:38.811Z,9.43
2018-12-06T18:55:06.810Z,10.47
2018-12-06T18:57:34.652Z,7.43
2018-12-06T19:00:02.195Z,9.80
2018-12-06T19:02:30.208Z,11.83
2018-12-06T19:04:59.539Z,7.63
2018-12-06T19:07:27.069Z,10.20
2018-12-06T19:09:54.726Z,9.37
2018-12-06T19:12:22.744Z,9.40
2018-12-06T19:14:50.456Z,14.60
2018-12-06T19:17:18.296Z,9.67
2018-12-06T19:19:45.887Z,10.20
2018-12-06T19:22:14.283Z,8.20
2018-12-06T19:24:41.819Z,12.33
2018-12-06T19:27:09.596Z,10.67
2018-12-06T19:29:38.036Z,10.20
2018-12-06T19:32:05.727Z,8.60
2018-12-06T19:34:34.479Z,9.50
2018-12-06T19:37:02.451Z,10.57
2018-12-06T19:39:30.688Z,10.13
2018-12-06T19:41:58.534Z,11.70
2018-12-06T19:44:26.152Z,11.27
2018-12-06T19:46:54.066Z,9.70
2018-12-06T19:49:21.601Z,8.20
2018-12-06T19:51:49.545Z,9.47
2018-12-06T19:54:17.092Z,10.10
2018-12-06T19:56:45.004Z,10.60
2018-12-06T19:59:12.550Z,7.67
2018-12-06T20:01:40.642Z,12.00
2018-12-06T20:04:08.172Z,8.17
2018-12-06T20:06:36.305Z,9.97
2018-12-06T20:09:07.217Z,8.50
2018-12-06T20:11:35.195Z,6.93
2018-12-06T20:14:03.294Z,6.80
2018-12-06T20:16:31.541Z,7.03
2018-12-06T20:18:59.084Z,11.60
2018-12-06T20:21:27.057Z,10.20
2018-12-06T20:23:54.788Z,7.00
2018-12-06T20:26:22.612Z,9.07
2018-12-06T20:28:51.846Z,7.27
2018-12-06T20:31:19.954Z,5.97
2018-12-06T20:33:47.500Z,7.07
2018-12-06T20:36:16.478Z,7.80
2018-12-06T20:38:44.053Z,5.97
2018-12-06T20:41:11.599Z,7.30
2018-12-06T20:43:39.405Z,7.43
2018-12-06T20:46:07.061Z,5.30
2018-12-06T20:48:35.134Z,7.60
2018-12-06T20:51:02.676Z,6.70
2018-12-06T20:53:30.454Z,5.50
2018-12-06T20:55:57.988Z,6.03
2018-12-06T20:58:25.793Z,10.20
2018-12-06T21:00:53.352Z,5.23
2018-12-06T21:03:21.334Z,7.20
2018-12-06T21:05:48.914Z,5.37
2018-12-06T21:08:16.881Z,5.00
2018-12-06T21:10:44.441Z,7.93
2018-12-06T21:13:12.117Z,7.57
2018-12-06T21:15:39.676Z,5.47
2018-12-06T21:18:07.578Z,5.97
2018-12-06T21:20:35.120Z,7.90
2018-12-06T21:23:03.210Z,5.20
2018-12-06T21:25:30.755Z,9.50
2018-12-06T21:27:58.668Z,7.77
2018-12-06T21:30:26.218Z,7.23
2018-12-06T21:32:53.907Z,6.87
2018-12-06T21:35:21.467Z,6.23
2018-12-06T21:37:49.403Z,6.10
2018-12-06T21:40:17.256Z,10.07
2018-12-06T21:42:44.818Z,8.40
2018-12-06T21:45:12.497Z,6.90
2018-12-06T21:47:40.030Z,7.20
2018-12-06T21:50:07.849Z,8.40
2018-12-06T21:52:35.451Z,11.00
2018-12-06T21:55:04.056Z,8.67
2018-12-06T21:57:31.585Z,8.83
2018-12-06T22:00:00.332Z,6.53
2018-12-06T22:02:28.072Z,6.63
2018-12-06T22:04:56.331Z,6.60
2018-12-06T22:07:23.880Z,7.53
2018-12-06T22:09:51.811Z,8.80
2018-12-06T22:12:19.365Z,7.10
2018-12-06T22:14:47.274Z,8.77
2018-12-06T22:17:14.828Z,10.30
2018-12-06T22:19:42.493Z,6.77
2018-12-06T22:22:10.027Z,7.97
2018-12-06T22:24:37.847Z,5.47
2018-12-06T22:27:05.398Z,10.63
2018-12-06T22:29:33.552Z,5.43
2018-12-06T22:32:01.104Z,6.80
2018-12-06T22:34:28.833Z,7.83
2018-12-06T22:36:56.362Z,9.13
2018-12-06T22:39:24.236Z,6.20
2018-12-06T22:41:51.799Z,10.43
2018-12-06T22:44:19.844Z,7.73
2018-12-06T22:46:47.364Z,6.43
2018-12-06T22:49:15.484Z,11.63
2018-12-06T22:51:43.511Z,7.43
2018-12-06T22:54:11.355Z,11.50
2018-12-06T22:56:38.921Z,10.27
2018-12-06T22:59:06.463Z,9.97
2018-12-06T23:01:40.348Z,9.57
2018-12-06T23:04:08.359Z,6.90
2018-12-06T23:06:36.528Z,10.80
2018-12-06T23:09:06.837Z,13.20
2018-12-06T23:11:34.612Z,12.30
2018-12-06T23:14:02.221Z,11.37
2018-12-06T23:16:30.268Z,9.40
2018-12-06T23:18:57.799Z,9.60
2018-12-06T23:21:25.479Z,10.70
2018-12-06T23:23:52.997Z,12.30
2018-12-06T23:26:20.949Z,9.33
2018-12-06T23:28:48.495Z,16.83
2018-12-06T23:31:16.191Z,10.77
2018-12-06T23:33:44.347Z,9.87
2018-12-06T23:36:12.169Z,10.80
2018-12-06T23:38:39.700Z,14.90
2018-12-06T23:41:07.435Z,10.87
2018-12-06T23:43:34.969Z,10.93
2018-12-06T23:46:02.817Z,14.17
2018-12-06T23:48:30.355Z,10.83
2018-12-06T23:51:07.708Z,13.47
2018-12-06T23:53:35.314Z,11.27
2018-12-06T23:56:02.865Z,11.30
2018-12-06T23:58:31.309Z,11.03
